sensor_id;sensor_type;location;lat;lon;timestamp;P1;durP1;ratioP1;P2;durP2;ratioP2
735;SDS011;352;48.626;9.238;2022-10-31T00:01:13;6.53;;;5.33;;
735;SDS011;352;48.626;9.238;2022-10-31T00:03:42;8.00;;;5.80;;
735;SDS011;352;48.626;9.238;2022-10-31T00:06:09;8.30;;;5.40;;
735;SDS011;352;48.626;9.238;2022-10-31T00:08:36;7.00;;;5.90;;
735;SDS011;352;48.626;9.238;2022-10-31T00:11:03;8.23;;;5.20;;
735;SDS011;352;48.626;9.238;2022-10-31T00:13:34;5.33;;;4.83;;
735;SDS011;352;48.626;9.238;2022-10-31T00:16:00;9.87;;;5.77;;
735;SDS011;352;48.626;9.238;2022-10-31T00:18:27;7.40;;;5.40;;
735;SDS011;352;48.626;9.238;2022-10-31T00:20:59;10.30;;;6.20;;
735;SDS011;352;48.626;9.238;2022-10-31T00:23:26;7.30;;;6.20;;
735;SDS011;352;48.626;9.238;2022-10-31T00:25:53;6.43;;;5.83;;
735;SDS011;352;48.626;9.238;2022-10-31T00:28:20;6.17;;;5.50;;
735;SDS011;352;48.626;9.238;2022-10-31T00:30:47;13.73;;;5.07;;
735;SDS011;352;48.626;9.238;2022-10-31T00:33:13;6.80;;;5.50;;
735;SDS011;352;48.626;9.238;2022-10-31T00:35:40;8.10;;;5.27;;
735;SDS011;352;48.626;9.238;2022-10-31T00:38:08;7.73;;;5.23;;
735;SDS011;352;48.626;9.238;2022-10-31T00:40:35;8.70;;;5.70;;
735;SDS011;352;48.626;9.238;2022-10-31T00:43:01;9.03;;;5.60;;
735;SDS011;352;48.626;9.238;2022-10-31T00:45:28;7.40;;;5.53;;
735;SDS011;352;48.626;9.238;2022-10-31T00:47:55;12.20;;;5.20;;
735;SDS011;352;48.626;9.238;2022-10-31T00:50:21;8.47;;;7.67;;
735;SDS011;352;48.626;9.238;2022-10-31T00:52:48;6.60;;;4.97;;
735;SDS011;352;48.626;9.238;2022-10-31T00:55:16;7.03;;;5.57;;
735;SDS011;352;48.626;9.238;2022-10-31T00:57:45;7.40;;;5.30;;
735;SDS011;352;48.626;9.238;2022-10-31T01:00:12;7.57;;;5.27;;
735;SDS011;352;48.626;9.238;2022-10-31T01:02:39;8.33;;;5.90;;
735;SDS011;352;48.626;9.238;2022-10-31T01:05:06;10.40;;;6.53;;
735;SDS011;352;48.626;9.238;2022-10-31T01:07:35;8.07;;;5.93;;
735;SDS011;352;48.626;9.238;2022-10-31T01:10:02;6.57;;;5.93;;
735;SDS011;352;48.626;9.238;2022-10-31T01:12:31;8.13;;;6.23;;
735;SDS011;352;48.626;9.238;2022-10-31T01:15:02;9.30;;;5.27;;
735;SDS011;352;48.626;9.238;2022-10-31T01:17:30;6.93;;;4.60;;
735;SDS011;352;48.626;9.238;2022-10-31T01:19:56;9.27;;;5.27;;
735;SDS011;352;48.626;9.238;2022-10-31T01:22:24;9.07;;;5.33;;
735;SDS011;352;48.626;9.238;2022-10-31T01:24:50;7.40;;;5.53;;
735;SDS011;352;48.626;9.238;2022-10-31T01:27:17;7.37;;;5.27;;
735;SDS011;352;48.626;9.238;2022-10-31T01:29:45;8.40;;;5.80;;
735;SDS011;352;48.626;9.238;2022-10-31T01:32:12;7.70;;;6.00;;
735;SDS011;352;48.626;9.238;2022-10-31T01:34:38;7.90;;;5.13;;
735;SDS011;352;48.626;9.238;2022-10-31T01:37:05;10.03;;;5.27;;
735;SDS011;352;48.626;9.238;2022-10-31T01:39:32;6.70;;;5.87;;
735;SDS011;352;48.626;9.238;2022-10-31T01:41:59;7.70;;;5.80;;
735;SDS011;352;48.626;9.238;2022-10-31T01:47:38;8.50;;;6.07;;
735;SDS011;352;48.626;9.238;2022-10-31T01:50:10;7.27;;;5.80;;
735;SDS011;352;48.626;9.238;2022-10-31T01:52:42;7.10;;;5.97;;
735;SDS011;352;48.626;9.238;2022-10-31T01:55:12;8.50;;;5.40;;
735;SDS011;352;48.626;9.238;2022-10-31T01:57:42;10.70;;;5.70;;
735;SDS011;352;48.626;9.238;2022-10-31T02:00:13;7.63;;;5.10;;
735;SDS011;352;48.626;9.238;2022-10-31T02:02:41;10.57;;;6.03;;
735;SDS011;352;48.626;9.238;2022-10-31T02:05:09;6.33;;;5.70;;
735;SDS011;352;48.626;9.238;2022-10-31T02:07:39;8.53;;;5.93;;
735;SDS011;352;48.626;9.238;2022-10-31T02:10:09;7.43;;;5.43;;
735;SDS011;352;48.626;9.238;2022-10-31T02:12:36;5.43;;;4.93;;
735;SDS011;352;48.626;9.238;2022-10-31T02:15:04;7.47;;;5.13;;
735;SDS011;352;48.626;9.238;2022-10-31T02:17:34;10.10;;;5.17;;
735;SDS011;352;48.626;9.238;2022-10-31T02:20:04;9.97;;;4.70;;
735;SDS011;352;48.626;9.238;2022-10-31T02:22:40;8.13;;;5.73;;
735;SDS011;352;48.626;9.238;2022-10-31T02:25:23;8.60;;;5.77;;
735;SDS011;352;48.626;9.238;2022-10-31T02:28:20;5.90;;;5.30;;
735;SDS011;352;48.626;9.238;2022-10-31T02:30:59;6.60;;;5.37;;
735;SDS011;352;48.626;9.238;2022-10-31T02:33:33;6.87;;;4.83;;
735;SDS011;352;48.626;9.238;2022-10-31T02:36:09;11.47;;;5.37;;
735;SDS011;352;48.626;9.238;2022-10-31T02:38:43;6.20;;;4.90;;
735;SDS011;352;48.626;9.238;2022-10-31T02:41:19;5.17;;;4.60;;
735;SDS011;352;48.626;9.238;2022-10-31T02:43:54;6.03;;;4.90;;
735;SDS011;352;48.626;9.238;2022-10-31T02:46:32;6.17;;;5.10;;
735;SDS011;352;48.626;9.238;2022-10-31T02:49:05;6.17;;;5.10;;
735;SDS011;352;48.626;9.238;2022-10-31T02:51:37;7.00;;;5.40;;
735;SDS011;352;48.626;9.238;2022-10-31T02:54:05;6.67;;;4.90;;
735;SDS011;352;48.626;9.238;2022-10-31T02:56:43;7.80;;;4.90;;
735;SDS011;352;48.626;9.238;2022-10-31T02:59:10;6.00;;;4.50;;
735;SDS011;352;48.626;9.238;2022-10-31T03:01:41;5.23;;;4.73;;
735;SDS011;352;48.626;9.238;2022-10-31T03:04:29;5.60;;;4.97;;
735;SDS011;352;48.626;9.238;2022-10-31T03:07:08;5.97;;;5.37;;
735;SDS011;352;48.626;9.238;2022-10-31T03:09:44;10.50;;;5.80;;
735;SDS011;352;48.626;9.238;2022-10-31T03:12:19;5.87;;;4.63;;
735;SDS011;352;48.626;9.238;2022-10-31T03:14:53;5.20;;;4.60;;
735;SDS011;352;48.626;9.238;2022-10-31T03:17:30;6.93;;;4.53;;
735;SDS011;352;48.626;9.238;2022-10-31T03:20:02;9.00;;;5.00;;
735;SDS011;352;48.626;9.238;2022-10-31T03:22:32;6.83;;;4.80;;
735;SDS011;352;48.626;9.238;2022-10-31T03:25:02;9.63;;;4.40;;
735;SDS011;352;48.626;9.238;2022-10-31T03:27:32;7.10;;;4.50;;
735;SDS011;352;48.626;9.238;2022-10-31T03:30:03;5.77;;;5.10;;
735;SDS011;352;48.626;9.238;2022-10-31T03:32:34;5.60;;;5.10;;
735;SDS011;352;48.626;9.238;2022-10-31T03:35:06;9.63;;;4.97;;
735;SDS011;352;48.626;9.238;2022-10-31T03:37:36;7.67;;;5.53;;
735;SDS011;352;48.626;9.238;2022-10-31T03:40:05;9.30;;;5.13;;
735;SDS011;352;48.626;9.238;2022-10-31T03:42:35;8.03;;;5.60;;
735;SDS011;352;48.626;9.238;2022-10-31T03:45:06;7.20;;;5.33;;
735;SDS011;352;48.626;9.238;2022-10-31T03:47:38;5.93;;;5.20;;
735;SDS011;352;48.626;9.238;2022-10-31T03:50:06;7.73;;;4.90;;
735;SDS011;352;48.626;9.238;2022-10-31T03:52:36;6.20;;;4.47;;
735;SDS011;352;48.626;9.238;2022-10-31T03:55:09;6.70;;;4.80;;
735;SDS011;352;48.626;9.238;2022-10-31T03:57:39;6.37;;;4.50;;
735;SDS011;352;48.626;9.238;2022-10-31T04:00:11;7.73;;;4.33;;
735;SDS011;352;48.626;9.238;2022-10-31T04:02:42;5.33;;;4.00;;
735;SDS011;352;48.626;9.238;2022-10-31T04:05:13;5.40;;;4.90;;
735;SDS011;352;48.626;9.238;2022-10-31T04:07:43;5.50;;;4.33;;
735;SDS011;352;48.626;9.238;2022-10-31T04:10:13;7.53;;;4.50;;
735;SDS011;352;48.626;9.238;2022-10-31T04:12:42;5.07;;;4.50;;
735;SDS011;352;48.626;9.238;2022-10-31T04:15:12;5.03;;;4.20;;
735;SDS011;352;48.626;9.238;2022-10-31T04:17:40;6.37;;;5.00;;
735;SDS011;352;48.626;9.238;2022-10-31T04:20:11;9.00;;;4.43;;
735;SDS011;352;48.626;9.238;2022-10-31T04:22:41;5.47;;;4.47;;
735;SDS011;352;48.626;9.238;2022-10-31T04:25:08;5.27;;;4.27;;
735;SDS011;352;48.626;9.238;2022-10-31T04:27:35;5.43;;;4.43;;
735;SDS011;352;48.626;9.238;2022-10-31T04:30:02;7.67;;;4.83;;
735;SDS011;352;48.626;9.238;2022-10-31T04:32:29;5.40;;;4.20;;
735;SDS011;352;48.626;9.238;2022-10-31T04:34:57;5.10;;;4.60;;
735;SDS011;352;48.626;9.238;2022-10-31T04:37:23;6.27;;;5.60;;
735;SDS011;352;48.626;9.238;2022-10-31T04:39:50;7.40;;;5.70;;
735;SDS011;352;48.626;9.238;2022-10-31T04:42:17;9.90;;;5.27;;
735;SDS011;352;48.626;9.238;2022-10-31T04:44:44;7.50;;;6.30;;
735;SDS011;352;48.626;9.238;2022-10-31T04:47:10;6.47;;;5.27;;
735;SDS011;352;48.626;9.238;2022-10-31T04:49:37;7.23;;;5.53;;
735;SDS011;352;48.626;9.238;2022-10-31T04:52:05;6.13;;;5.37;;
735;SDS011;352;48.626;9.238;2022-10-31T04:54:33;7.03;;;5.20;;
735;SDS011;352;48.626;9.238;2022-10-31T04:56:59;5.50;;;4.10;;
735;SDS011;352;48.626;9.238;2022-10-31T04:59:26;8.47;;;4.40;;
735;SDS011;352;48.626;9.238;2022-10-31T05:01:53;5.00;;;4.50;;
735;SDS011;352;48.626;9.238;2022-10-31T05:04:20;6.03;;;5.10;;
735;SDS011;352;48.626;9.238;2022-10-31T05:06:47;6.68;;;4.75;;
735;SDS011;352;48.626;9.238;2022-10-31T05:09:15;6.17;;;4.77;;
735;SDS011;352;48.626;9.238;2022-10-31T05:11:41;5.72;;;4.60;;
735;SDS011;352;48.626;9.238;2022-10-31T05:14:08;6.33;;;4.57;;
735;SDS011;352;48.626;9.238;2022-10-31T05:16:35;8.02;;;4.70;;
735;SDS011;352;48.626;9.238;2022-10-31T05:19:01;7.00;;;4.60;;
735;SDS011;352;48.626;9.238;2022-10-31T05:21:28;6.15;;;4.60;;
735;SDS011;352;48.626;9.238;2022-10-31T05:23:55;4.47;;;3.85;;
735;SDS011;352;48.626;9.238;2022-10-31T05:26:23;4.85;;;4.45;;
735;SDS011;352;48.626;9.238;2022-10-31T05:28:50;4.67;;;4.23;;
735;SDS011;352;48.626;9.238;2022-10-31T05:31:16;5.82;;;4.25;;
735;SDS011;352;48.626;9.238;2022-10-31T05:33:43;5.30;;;3.87;;
735;SDS011;352;48.626;9.238;2022-10-31T05:36:10;7.95;;;4.50;;
735;SDS011;352;48.626;9.238;2022-10-31T05:38:37;5.30;;;4.43;;
735;SDS011;352;48.626;9.238;2022-10-31T05:41:04;6.20;;;4.20;;
735;SDS011;352;48.626;9.238;2022-10-31T05:43:32;5.38;;;4.68;;
735;SDS011;352;48.626;9.238;2022-10-31T05:45:58;5.88;;;5.28;;
735;SDS011;352;48.626;9.238;2022-10-31T05:48:25;5.18;;;4.68;;
735;SDS011;352;48.626;9.238;2022-10-31T05:50:52;5.10;;;4.60;;
735;SDS011;352;48.626;9.238;2022-10-31T05:53:18;4.10;;;3.37;;
735;SDS011;352;48.626;9.238;2022-10-31T05:55:46;4.90;;;4.40;;
735;SDS011;352;48.626;9.238;2022-10-31T05:58:13;5.93;;;4.27;;
735;SDS011;352;48.626;9.238;2022-10-31T06:00:41;6.23;;;3.73;;
735;SDS011;352;48.626;9.238;2022-10-31T06:03:08;6.47;;;4.30;;
735;SDS011;352;48.626;9.238;2022-10-31T06:05:35;7.70;;;4.47;;
735;SDS011;352;48.626;9.238;2022-10-31T06:08:02;4.40;;;4.00;;
735;SDS011;352;48.626;9.238;2022-10-31T06:10:29;7.07;;;3.78;;
735;SDS011;352;48.626;9.238;2022-10-31T06:12:56;4.10;;;3.70;;
735;SDS011;352;48.626;9.238;2022-10-31T06:15:22;7.80;;;4.40;;
735;SDS011;352;48.626;9.238;2022-10-31T06:17:58;9.03;;;4.57;;
735;SDS011;352;48.626;9.238;2022-10-31T06:20:26;6.80;;;4.67;;
735;SDS011;352;48.626;9.238;2022-10-31T06:22:53;6.00;;;4.10;;
735;SDS011;352;48.626;9.238;2022-10-31T06:25:19;4.82;;;4.38;;
735;SDS011;352;48.626;9.238;2022-10-31T06:27:46;5.93;;;3.60;;
735;SDS011;352;48.626;9.238;2022-10-31T06:30:13;5.20;;;4.63;;
735;SDS011;352;48.626;9.238;2022-10-31T06:32:40;5.10;;;3.72;;
735;SDS011;352;48.626;9.238;2022-10-31T06:35:08;9.05;;;4.15;;
735;SDS011;352;48.626;9.238;2022-10-31T06:37:36;4.67;;;4.20;;
735;SDS011;352;48.626;9.238;2022-10-31T06:40:03;7.57;;;4.20;;
735;SDS011;352;48.626;9.238;2022-10-31T06:42:31;7.17;;;3.80;;
735;SDS011;352;48.626;9.238;2022-10-31T06:44:57;8.10;;;5.07;;
735;SDS011;352;48.626;9.238;2022-10-31T06:47:24;5.27;;;4.00;;
735;SDS011;352;48.626;9.238;2022-10-31T06:49:51;5.03;;;4.03;;
735;SDS011;352;48.626;9.238;2022-10-31T06:52:19;5.77;;;4.50;;
735;SDS011;352;48.626;9.238;2022-10-31T06:54:48;7.57;;;5.10;;
735;SDS011;352;48.626;9.238;2022-10-31T06:57:14;7.63;;;5.53;;
735;SDS011;352;48.626;9.238;2022-10-31T06:59:41;5.55;;;5.05;;
735;SDS011;352;48.626;9.238;2022-10-31T07:02:08;10.10;;;5.00;;
735;SDS011;352;48.626;9.238;2022-10-31T07:04:36;6.17;;;4.90;;
735;SDS011;352;48.626;9.238;2022-10-31T07:07:02;7.90;;;5.40;;
735;SDS011;352;48.626;9.238;2022-10-31T07:09:30;7.27;;;4.80;;
735;SDS011;352;48.626;9.238;2022-10-31T07:11:57;7.10;;;5.20;;
735;SDS011;352;48.626;9.238;2022-10-31T07:14:24;9.40;;;5.43;;
735;SDS011;352;48.626;9.238;2022-10-31T07:16:51;6.57;;;5.07;;
735;SDS011;352;48.626;9.238;2022-10-31T07:19:17;6.80;;;4.80;;
735;SDS011;352;48.626;9.238;2022-10-31T07:21:44;6.33;;;4.37;;
735;SDS011;352;48.626;9.238;2022-10-31T07:24:11;5.97;;;4.70;;
735;SDS011;352;48.626;9.238;2022-10-31T07:26:39;6.77;;;4.40;;
735;SDS011;352;48.626;9.238;2022-10-31T07:29:07;10.57;;;5.33;;
735;SDS011;352;48.626;9.238;2022-10-31T07:31:34;7.40;;;5.20;;
735;SDS011;352;48.626;9.238;2022-10-31T07:34:00;6.90;;;6.20;;
735;SDS011;352;48.626;9.238;2022-10-31T07:36:27;6.83;;;5.53;;
735;SDS011;352;48.626;9.238;2022-10-31T07:38:54;6.83;;;6.00;;
735;SDS011;352;48.626;9.238;2022-10-31T07:41:21;8.50;;;6.10;;
735;SDS011;352;48.626;9.238;2022-10-31T07:43:49;9.00;;;6.00;;
735;SDS011;352;48.626;9.238;2022-10-31T07:46:16;8.00;;;5.77;;
735;SDS011;352;48.626;9.238;2022-10-31T07:48:42;17.30;;;5.73;;
735;SDS011;352;48.626;9.238;2022-10-31T07:51:09;9.63;;;5.20;;
735;SDS011;352;48.626;9.238;2022-10-31T07:53:36;7.23;;;5.27;;
735;SDS011;352;48.626;9.238;2022-10-31T07:56:03;7.57;;;5.20;;
735;SDS011;352;48.626;9.238;2022-10-31T07:58:29;5.80;;;5.30;;
735;SDS011;352;48.626;9.238;2022-10-31T08:00:58;9.07;;;5.20;;
735;SDS011;352;48.626;9.238;2022-10-31T08:03:24;7.20;;;5.80;;
735;SDS011;352;48.626;9.238;2022-10-31T08:05:51;10.07;;;4.83;;
735;SDS011;352;48.626;9.238;2022-10-31T08:08:18;5.70;;;4.80;;
735;SDS011;352;48.626;9.238;2022-10-31T08:10:44;6.83;;;4.90;;
735;SDS011;352;48.626;9.238;2022-10-31T08:13:12;5.20;;;4.67;;
735;SDS011;352;48.626;9.238;2022-10-31T08:15:40;5.33;;;4.83;;
735;SDS011;352;48.626;9.238;2022-10-31T08:18:10;5.97;;;4.33;;
735;SDS011;352;48.626;9.238;2022-10-31T08:20:39;5.27;;;4.23;;
735;SDS011;352;48.626;9.238;2022-10-31T08:23:06;8.53;;;4.60;;
735;SDS011;352;48.626;9.238;2022-10-31T08:25:35;6.57;;;4.60;;
735;SDS011;352;48.626;9.238;2022-10-31T08:28:02;8.80;;;5.00;;
735;SDS011;352;48.626;9.238;2022-10-31T08:30:30;8.47;;;4.67;;
735;SDS011;352;48.626;9.238;2022-10-31T08:32:59;9.10;;;4.70;;
735;SDS011;352;48.626;9.238;2022-10-31T08:35:28;5.20;;;4.27;;
735;SDS011;352;48.626;9.238;2022-10-31T08:37:55;6.30;;;5.20;;
735;SDS011;352;48.626;9.238;2022-10-31T08:40:22;6.00;;;5.10;;
735;SDS011;352;48.626;9.238;2022-10-31T08:42:57;6.40;;;5.60;;
735;SDS011;352;48.626;9.238;2022-10-31T08:45:25;6.67;;;5.10;;
735;SDS011;352;48.626;9.238;2022-10-31T08:47:52;8.20;;;4.97;;
735;SDS011;352;48.626;9.238;2022-10-31T08:50:22;6.30;;;4.80;;
735;SDS011;352;48.626;9.238;2022-10-31T08:52:50;10.20;;;4.90;;
735;SDS011;352;48.626;9.238;2022-10-31T08:55:17;8.10;;;5.10;;
735;SDS011;352;48.626;9.238;2022-10-31T08:57:44;6.17;;;4.40;;
735;SDS011;352;48.626;9.238;2022-10-31T09:00:11;8.00;;;5.20;;
735;SDS011;352;48.626;9.238;2022-10-31T09:02:38;6.17;;;5.10;;
735;SDS011;352;48.626;9.238;2022-10-31T09:05:04;7.50;;;5.40;;
735;SDS011;352;48.626;9.238;2022-10-31T09:07:32;11.63;;;5.80;;
735;SDS011;352;48.626;9.238;2022-10-31T09:10:00;6.50;;;5.10;;
735;SDS011;352;48.626;9.238;2022-10-31T09:12:26;6.13;;;4.70;;
735;SDS011;352;48.626;9.238;2022-10-31T09:14:53;6.00;;;5.40;;
735;SDS011;352;48.626;9.238;2022-10-31T09:17:20;8.73;;;5.73;;
735;SDS011;352;48.626;9.238;2022-10-31T09:19:46;6.80;;;4.80;;
735;SDS011;352;48.626;9.238;2022-10-31T09:22:13;8.90;;;5.07;;
735;SDS011;352;48.626;9.238;2022-10-31T09:24:40;5.17;;;4.43;;
735;SDS011;352;48.626;9.238;2022-10-31T09:27:08;6.73;;;5.30;;
735;SDS011;352;48.626;9.238;2022-10-31T09:29:35;7.57;;;4.77;;
735;SDS011;352;48.626;9.238;2022-10-31T09:32:02;5.97;;;4.73;;
735;SDS011;352;48.626;9.238;2022-10-31T09:34:28;5.57;;;4.97;;
735;SDS011;352;48.626;9.238;2022-10-31T09:36:55;7.93;;;4.80;;
735;SDS011;352;48.626;9.238;2022-10-31T09:39:22;6.07;;;4.70;;
735;SDS011;352;48.626;9.238;2022-10-31T09:44:56;5.83;;;5.33;;
735;SDS011;352;48.626;9.238;2022-10-31T09:47:31;6.60;;;5.00;;
735;SDS011;352;48.626;9.238;2022-10-31T09:50:11;7.93;;;4.90;;
735;SDS011;352;48.626;9.238;2022-10-31T09:52:44;6.37;;;5.40;;
735;SDS011;352;48.626;9.238;2022-10-31T09:55:19;9.43;;;5.47;;
735;SDS011;352;48.626;9.238;2022-10-31T09:57:51;6.00;;;5.40;;
735;SDS011;352;48.626;9.238;2022-10-31T10:00:21;8.20;;;5.70;;
735;SDS011;352;48.626;9.238;2022-10-31T10:02:49;8.40;;;5.30;;
735;SDS011;352;48.626;9.238;2022-10-31T10:05:21;6.90;;;5.50;;
735;SDS011;352;48.626;9.238;2022-10-31T10:07:59;6.53;;;5.27;;
735;SDS011;352;48.626;9.238;2022-10-31T10:10:36;5.83;;;4.77;;
735;SDS011;352;48.626;9.238;2022-10-31T10:13:16;9.20;;;5.43;;
735;SDS011;352;48.626;9.238;2022-10-31T10:16:12;9.00;;;5.60;;
735;SDS011;352;48.626;9.238;2022-10-31T10:18:57;7.97;;;4.97;;
735;SDS011;352;48.626;9.238;2022-10-31T10:21:32;6.50;;;5.10;;
735;SDS011;352;48.626;9.238;2022-10-31T10:24:12;5.67;;;5.10;;
735;SDS011;352;48.626;9.238;2022-10-31T10:26:55;7.00;;;4.83;;
735;SDS011;352;48.626;9.238;2022-10-31T10:29:33;6.90;;;5.27;;
735;SDS011;352;48.626;9.238;2022-10-31T10:32:09;6.33;;;4.77;;
735;SDS011;352;48.626;9.238;2022-10-31T10:34:41;6.60;;;4.90;;
735;SDS011;352;48.626;9.238;2022-10-31T10:37:20;9.63;;;5.43;;
735;SDS011;352;48.626;9.238;2022-10-31T10:39:54;11.50;;;5.17;;
735;SDS011;352;48.626;9.238;2022-10-31T10:42:26;6.73;;;5.20;;
735;SDS011;352;48.626;9.238;2022-10-31T10:45:15;8.13;;;4.90;;
735;SDS011;352;48.626;9.238;2022-10-31T10:48:06;8.70;;;5.33;;
735;SDS011;352;48.626;9.238;2022-10-31T10:50:41;8.07;;;5.77;;
735;SDS011;352;48.626;9.238;2022-10-31T10:53:16;8.87;;;5.90;;
735;SDS011;352;48.626;9.238;2022-10-31T10:55:58;7.80;;;5.17;;
735;SDS011;352;48.626;9.238;2022-10-31T10:58:29;8.23;;;5.53;;
735;SDS011;352;48.626;9.238;2022-10-31T11:00:56;5.70;;;5.20;;
735;SDS011;352;48.626;9.238;2022-10-31T11:03:24;7.30;;;5.17;;
735;SDS011;352;48.626;9.238;2022-10-31T11:05:51;13.13;;;5.83;;
735;SDS011;352;48.626;9.238;2022-10-31T11:08:24;10.00;;;5.00;;
735;SDS011;352;48.626;9.238;2022-10-31T11:11:01;8.30;;;5.87;;
735;SDS011;352;48.626;9.238;2022-10-31T11:13:30;6.43;;;5.13;;
735;SDS011;352;48.626;9.238;2022-10-31T11:15:58;11.00;;;5.53;;
735;SDS011;352;48.626;9.238;2022-10-31T11:18:28;5.63;;;5.10;;
735;SDS011;352;48.626;9.238;2022-10-31T11:20:58;5.53;;;5.03;;
735;SDS011;352;48.626;9.238;2022-10-31T11:23:26;5.23;;;4.60;;
735;SDS011;352;48.626;9.238;2022-10-31T11:25:55;8.27;;;6.03;;
735;SDS011;352;48.626;9.238;2022-10-31T11:28:23;7.80;;;5.10;;
735;SDS011;352;48.626;9.238;2022-10-31T11:30:51;6.83;;;5.00;;
735;SDS011;352;48.626;9.238;2022-10-31T11:33:21;8.93;;;5.50;;
735;SDS011;352;48.626;9.238;2022-10-31T11:35:54;5.97;;;4.77;;
735;SDS011;352;48.626;9.238;2022-10-31T11:38:22;6.03;;;5.43;;
735;SDS011;352;48.626;9.238;2022-10-31T11:40:56;6.00;;;5.10;;
735;SDS011;352;48.626;9.238;2022-10-31T11:43:25;7.70;;;6.00;;
735;SDS011;352;48.626;9.238;2022-10-31T11:45:53;8.77;;;5.10;;
735;SDS011;352;48.626;9.238;2022-10-31T11:48:20;8.97;;;5.10;;
735;SDS011;352;48.626;9.238;2022-10-31T11:50:49;8.03;;;4.80;;
735;SDS011;352;48.626;9.238;2022-10-31T11:53:26;7.30;;;4.40;;
735;SDS011;352;48.626;9.238;2022-10-31T11:56:04;8.30;;;5.53;;
735;SDS011;352;48.626;9.238;2022-10-31T11:58:36;8.03;;;5.17;;
735;SDS011;352;48.626;9.238;2022-10-31T12:01:03;11.20;;;5.93;;
735;SDS011;352;48.626;9.238;2022-10-31T12:03:33;8.20;;;5.90;;
735;SDS011;352;48.626;9.238;2022-10-31T12:06:07;8.10;;;4.30;;
735;SDS011;352;48.626;9.238;2022-10-31T12:08:40;8.03;;;4.37;;
735;SDS011;352;48.626;9.238;2022-10-31T12:11:10;10.73;;;5.73;;
735;SDS011;352;48.626;9.238;2022-10-31T12:13:48;10.73;;;5.67;;
735;SDS011;352;48.626;9.238;2022-10-31T12:16:26;5.37;;;4.90;;
735;SDS011;352;48.626;9.238;2022-10-31T12:18:58;6.67;;;4.90;;
735;SDS011;352;48.626;9.238;2022-10-31T12:24:27;7.53;;;4.93;;
735;SDS011;352;48.626;9.238;2022-10-31T12:27:14;16.00;;;4.90;;
735;SDS011;352;48.626;9.238;2022-10-31T12:30:00;8.20;;;4.93;;
735;SDS011;352;48.626;9.238;2022-10-31T12:32:38;6.60;;;4.83;;
735;SDS011;352;48.626;9.238;2022-10-31T12:35:23;7.80;;;5.40;;
735;SDS011;352;48.626;9.238;2022-10-31T12:38:09;7.33;;;4.90;;
735;SDS011;352;48.626;9.238;2022-10-31T12:40:53;7.50;;;4.80;;
735;SDS011;352;48.626;9.238;2022-10-31T12:43:37;5.77;;;3.77;;
735;SDS011;352;48.626;9.238;2022-10-31T12:46:11;7.73;;;5.43;;
735;SDS011;352;48.626;9.238;2022-10-31T12:48:56;7.23;;;4.93;;
735;SDS011;352;48.626;9.238;2022-10-31T12:51:36;9.43;;;5.37;;
735;SDS011;352;48.626;9.238;2022-10-31T12:54:14;8.07;;;5.50;;
735;SDS011;352;48.626;9.238;2022-10-31T12:56:52;7.63;;;4.90;;
735;SDS011;352;48.626;9.238;2022-10-31T12:59:27;5.90;;;4.50;;
735;SDS011;352;48.626;9.238;2022-10-31T13:01:59;10.03;;;5.50;;
735;SDS011;352;48.626;9.238;2022-10-31T13:04:35;11.77;;;4.97;;
735;SDS011;352;48.626;9.238;2022-10-31T13:07:08;7.17;;;5.00;;
735;SDS011;352;48.626;9.238;2022-10-31T13:09:40;5.33;;;4.60;;
735;SDS011;352;48.626;9.238;2022-10-31T13:12:16;6.47;;;5.40;;
735;SDS011;352;48.626;9.238;2022-10-31T13:14:46;7.63;;;5.90;;
735;SDS011;352;48.626;9.238;2022-10-31T13:17:19;6.90;;;4.93;;
735;SDS011;352;48.626;9.238;2022-10-31T13:19:50;6.30;;;3.57;;
735;SDS011;352;48.626;9.238;2022-10-31T13:22:20;4.30;;;3.83;;
735;SDS011;352;48.626;9.238;2022-10-31T13:24:52;8.43;;;5.20;;
735;SDS011;352;48.626;9.238;2022-10-31T13:27:25;6.53;;;4.90;;
735;SDS011;352;48.626;9.238;2022-10-31T13:29:56;6.80;;;4.60;;
735;SDS011;352;48.626;9.238;2022-10-31T13:32:28;5.70;;;4.80;;
735;SDS011;352;48.626;9.238;2022-10-31T13:35:04;10.13;;;4.80;;
735;SDS011;352;48.626;9.238;2022-10-31T13:37:40;8.30;;;4.97;;
735;SDS011;352;48.626;9.238;2022-10-31T13:40:12;10.60;;;5.27;;
735;SDS011;352;48.626;9.238;2022-10-31T13:42:50;6.10;;;4.60;;
735;SDS011;352;48.626;9.238;2022-10-31T13:45:22;6.40;;;4.60;;
735;SDS011;352;48.626;9.238;2022-10-31T13:47:56;7.17;;;4.77;;
735;SDS011;352;48.626;9.238;2022-10-31T13:50:26;6.80;;;5.20;;
735;SDS011;352;48.626;9.238;2022-10-31T13:53:03;6.83;;;5.30;;
735;SDS011;352;48.626;9.238;2022-10-31T13:55:38;6.80;;;5.10;;
735;SDS011;352;48.626;9.238;2022-10-31T13:58:21;5.57;;;4.67;;
735;SDS011;352;48.626;9.238;2022-10-31T14:00:58;9.37;;;5.20;;
735;SDS011;352;48.626;9.238;2022-10-31T14:03:41;9.90;;;4.63;;
735;SDS011;352;48.626;9.238;2022-10-31T14:06:10;6.83;;;4.20;;
735;SDS011;352;48.626;9.238;2022-10-31T14:08:39;9.20;;;4.40;;
735;SDS011;352;48.626;9.238;2022-10-31T14:11:07;8.73;;;4.50;;
735;SDS011;352;48.626;9.238;2022-10-31T14:13:44;6.30;;;4.50;;
735;SDS011;352;48.626;9.238;2022-10-31T14:16:16;11.53;;;4.40;;
735;SDS011;352;48.626;9.238;2022-10-31T14:18:47;7.50;;;4.20;;
735;SDS011;352;48.626;9.238;2022-10-31T14:21:25;7.20;;;4.53;;
735;SDS011;352;48.626;9.238;2022-10-31T14:23:54;4.83;;;4.07;;
735;SDS011;352;48.626;9.238;2022-10-31T14:26:32;5.47;;;4.77;;
735;SDS011;352;48.626;9.238;2022-10-31T14:29:20;10.23;;;4.57;;
735;SDS011;352;48.626;9.238;2022-10-31T14:31:54;6.10;;;4.70;;
735;SDS011;352;48.626;9.238;2022-10-31T14:34:26;7.70;;;4.30;;
735;SDS011;352;48.626;9.238;2022-10-31T14:39:59;5.40;;;4.90;;
735;SDS011;352;48.626;9.238;2022-10-31T14:42:45;13.13;;;5.37;;
735;SDS011;352;48.626;9.238;2022-10-31T14:45:27;8.53;;;4.80;;
735;SDS011;352;48.626;9.238;2022-10-31T14:48:03;6.47;;;5.20;;
735;SDS011;352;48.626;9.238;2022-10-31T14:50:41;8.57;;;4.80;;
735;SDS011;352;48.626;9.238;2022-10-31T14:53:14;7.37;;;4.60;;
735;SDS011;352;48.626;9.238;2022-10-31T14:55:45;7.47;;;4.47;;
735;SDS011;352;48.626;9.238;2022-10-31T14:58:15;11.10;;;4.90;;
735;SDS011;352;48.626;9.238;2022-10-31T15:00:47;7.10;;;4.40;;
735;SDS011;352;48.626;9.238;2022-10-31T15:03:15;9.27;;;4.80;;
735;SDS011;352;48.626;9.238;2022-10-31T15:05:45;8.10;;;4.27;;
735;SDS011;352;48.626;9.238;2022-10-31T15:08:25;7.10;;;4.20;;
735;SDS011;352;48.626;9.238;2022-10-31T15:10:55;9.33;;;5.00;;
735;SDS011;352;48.626;9.238;2022-10-31T15:13:22;5.37;;;4.37;;
735;SDS011;352;48.626;9.238;2022-10-31T15:15:51;6.93;;;4.47;;
735;SDS011;352;48.626;9.238;2022-10-31T15:18:21;7.53;;;5.07;;
735;SDS011;352;48.626;9.238;2022-10-31T15:20:51;8.07;;;5.50;;
735;SDS011;352;48.626;9.238;2022-10-31T15:23:21;8.10;;;4.63;;
735;SDS011;352;48.626;9.238;2022-10-31T15:25:50;7.13;;;5.47;;
735;SDS011;352;48.626;9.238;2022-10-31T15:28:24;10.33;;;5.27;;
735;SDS011;352;48.626;9.238;2022-10-31T15:30:53;6.83;;;5.23;;
735;SDS011;352;48.626;9.238;2022-10-31T15:33:22;5.57;;;5.00;;
735;SDS011;352;48.626;9.238;2022-10-31T15:35:54;7.07;;;5.77;;
735;SDS011;352;48.626;9.238;2022-10-31T15:38:21;7.73;;;4.73;;
735;SDS011;352;48.626;9.238;2022-10-31T15:40:53;8.83;;;5.03;;
735;SDS011;352;48.626;9.238;2022-10-31T15:43:22;8.77;;;5.37;;
735;SDS011;352;48.626;9.238;2022-10-31T15:45:49;10.77;;;6.13;;
735;SDS011;352;48.626;9.238;2022-10-31T15:48:17;6.27;;;5.30;;
735;SDS011;352;48.626;9.238;2022-10-31T15:50:49;10.70;;;5.93;;
735;SDS011;352;48.626;9.238;2022-10-31T15:53:18;11.67;;;5.33;;
735;SDS011;352;48.626;9.238;2022-10-31T15:55:50;12.17;;;6.03;;
735;SDS011;352;48.626;9.238;2022-10-31T15:58:19;9.57;;;6.60;;
735;SDS011;352;48.626;9.238;2022-10-31T16:00:56;9.23;;;6.20;;
735;SDS011;352;48.626;9.238;2022-10-31T16:03:26;9.40;;;7.53;;
735;SDS011;352;48.626;9.238;2022-10-31T16:05:54;17.60;;;7.37;;
735;SDS011;352;48.626;9.238;2022-10-31T16:08:32;16.40;;;10.03;;
735;SDS011;352;48.626;9.238;2022-10-31T16:11:00;22.67;;;14.17;;
735;SDS011;352;48.626;9.238;2022-10-31T16:13:41;24.23;;;13.80;;
735;SDS011;352;48.626;9.238;2022-10-31T16:16:19;27.07;;;15.70;;